Terminal Aerodrome Forecast
Issued by NWS

Home | Current Version | Previous Version | Text Only | Print | Product List | Glossary On
Versions: 1 2 3 4 5 6 7 8 9 10 11 12 13 14 15 16 17 18 19 20 21 22 23 24
000
FTUS45 KRIW 192300
TAFLND
TAF
KLND 192320Z 2000/2024 25005KT P6SM FEW120 BKN200
     FM200200 VRB04KT P6SM VCFG FEW110 SCT200
     FM200300 24006KT 2SM BR BKN002
      TEMPO 2004/2008 1/2SM FG VV001
     FM201300 VRB04KT 4SM BR BKN001
     FM201500 VRB04KT P6SM VCFG SCT002 BKN110
     FM201800 28007KT P6SM SCT100 SCT200=

USA.gov is the U.S. government's official web portal to all federal, state and local government web resources and services.